sensor_id;sensor_type;location;lat;lon;timestamp;temperature;humidity
40636;DHT22;26642;55.766;37.828;2023-02-01T00:02:18;12.20;61.90
40636;DHT22;26642;55.766;37.828;2023-02-01T00:04:44;12.20;61.90
40636;DHT22;26642;55.766;37.828;2023-02-01T00:07:10;12.20;62.00
40636;DHT22;26642;55.766;37.828;2023-02-01T00:09:36;12.20;62.00
40636;DHT22;26642;55.766;37.828;2023-02-01T00:12:02;12.20;62.00
40636;DHT22;26642;55.766;37.828;2023-02-01T00:14:29;12.20;62.00
40636;DHT22;26642;55.766;37.828;2023-02-01T00:16:55;12.20;62.00
40636;DHT22;26642;55.766;37.828;2023-02-01T00:19:21;12.20;61.90
40636;DHT22;26642;55.766;37.828;2023-02-01T00:21:47;12.20;62.10
40636;DHT22;26642;55.766;37.828;2023-02-01T00:24:13;12.30;62.00
40636;DHT22;26642;55.766;37.828;2023-02-01T00:26:42;12.30;61.90
40636;DHT22;26642;55.766;37.828;2023-02-01T00:29:19;12.20;61.70
40636;DHT22;26642;55.766;37.828;2023-02-01T00:31:46;12.20;61.70
40636;DHT22;26642;55.766;37.828;2023-02-01T00:34:15;12.20;61.70
40636;DHT22;26642;55.766;37.828;2023-02-01T00:36:42;12.20;61.60
40636;DHT22;26642;55.766;37.828;2023-02-01T00:39:09;12.20;61.60
40636;DHT22;26642;55.766;37.828;2023-02-01T00:41:35;12.30;61.70
40636;DHT22;26642;55.766;37.828;2023-02-01T00:44:01;12.20;61.60
40636;DHT22;26642;55.766;37.828;2023-02-01T00:46:27;12.20;61.60
40636;DHT22;26642;55.766;37.828;2023-02-01T00:48:54;12.30;61.60
40636;DHT22;26642;55.766;37.828;2023-02-01T00:51:22;12.20;61.60
40636;DHT22;26642;55.766;37.828;2023-02-01T00:53:49;12.20;61.50
40636;DHT22;26642;55.766;37.828;2023-02-01T00:56:16;12.20;61.40
40636;DHT22;26642;55.766;37.828;2023-02-01T00:58:42;12.30;61.50
40636;DHT22;26642;55.766;37.828;2023-02-01T01:01:17;12.30;61.40
40636;DHT22;26642;55.766;37.828;2023-02-01T01:03:50;12.30;61.50
40636;DHT22;26642;55.766;37.828;2023-02-01T01:06:25;12.30;61.40
40636;DHT22;26642;55.766;37.828;2023-02-01T01:08:53;12.20;61.30
40636;DHT22;26642;55.766;37.828;2023-02-01T01:11:22;12.20;61.20
40636;DHT22;26642;55.766;37.828;2023-02-01T01:13:50;12.30;61.30
40636;DHT22;26642;55.766;37.828;2023-02-01T01:16:17;12.30;61.20
40636;DHT22;26642;55.766;37.828;2023-02-01T01:18:44;12.30;61.20
40636;DHT22;26642;55.766;37.828;2023-02-01T01:21:13;12.20;61.30
40636;DHT22;26642;55.766;37.828;2023-02-01T01:23:39;12.20;61.40
40636;DHT22;26642;55.766;37.828;2023-02-01T01:26:10;12.30;61.50
40636;DHT22;26642;55.766;37.828;2023-02-01T01:28:36;12.30;61.30
40636;DHT22;26642;55.766;37.828;2023-02-01T01:31:03;12.30;61.30
40636;DHT22;26642;55.766;37.828;2023-02-01T01:33:32;12.30;61.30
40636;DHT22;26642;55.766;37.828;2023-02-01T01:35:59;12.30;61.30
40636;DHT22;26642;55.766;37.828;2023-02-01T01:38:25;12.30;61.20
40636;DHT22;26642;55.766;37.828;2023-02-01T01:40:51;12.30;61.20
40636;DHT22;26642;55.766;37.828;2023-02-01T01:43:18;12.30;61.10
40636;DHT22;26642;55.766;37.828;2023-02-01T01:45:49;12.30;61.10
40636;DHT22;26642;55.766;37.828;2023-02-01T01:48:28;12.30;61.00
40636;DHT22;26642;55.766;37.828;2023-02-01T01:51:00;12.30;61.00
40636;DHT22;26642;55.766;37.828;2023-02-01T01:53:31;12.30;61.00
40636;DHT22;26642;55.766;37.828;2023-02-01T01:56:00;12.30;61.00
40636;DHT22;26642;55.766;37.828;2023-02-01T01:58:28;12.30;61.00
40636;DHT22;26642;55.766;37.828;2023-02-01T02:00:56;12.30;61.40
40636;DHT22;26642;55.766;37.828;2023-02-01T02:03:26;12.30;61.10
40636;DHT22;26642;55.766;37.828;2023-02-01T02:05:55;12.30;60.90
40636;DHT22;26642;55.766;37.828;2023-02-01T02:08:24;12.30;60.90
40636;DHT22;26642;55.766;37.828;2023-02-01T02:10:51;12.30;61.60
40636;DHT22;26642;55.766;37.828;2023-02-01T02:13:33;12.30;60.90
40636;DHT22;26642;55.766;37.828;2023-02-01T02:16:13;12.30;60.80
40636;DHT22;26642;55.766;37.828;2023-02-01T02:40:57;12.30;61.00
40636;DHT22;26642;55.766;37.828;2023-02-01T02:43:43;12.30;61.50
40636;DHT22;26642;55.766;37.828;2023-02-01T02:46:38;12.30;60.90
40636;DHT22;26642;55.766;37.828;2023-02-01T02:49:36;12.30;60.70
40636;DHT22;26642;55.766;37.828;2023-02-01T02:52:10;12.30;60.80
40636;DHT22;26642;55.766;37.828;2023-02-01T02:54:57;12.30;60.70
40636;DHT22;26642;55.766;37.828;2023-02-01T03:00:14;12.30;61.20
40636;DHT22;26642;55.766;37.828;2023-02-01T03:03:01;12.30;60.50
40636;DHT22;26642;55.766;37.828;2023-02-01T03:05:47;12.30;60.50
40636;DHT22;26642;55.766;37.828;2023-02-01T03:08:22;12.30;60.50
40636;DHT22;26642;55.766;37.828;2023-02-01T03:11:05;12.30;60.60
40636;DHT22;26642;55.766;37.828;2023-02-01T03:13:36;12.30;60.70
40636;DHT22;26642;55.766;37.828;2023-02-01T03:22:18;12.30;60.50
40636;DHT22;26642;55.766;37.828;2023-02-01T03:24:51;12.30;60.50
40636;DHT22;26642;55.766;37.828;2023-02-01T03:27:35;12.30;60.50
40636;DHT22;26642;55.766;37.828;2023-02-01T03:32:35;12.30;60.30
40636;DHT22;26642;55.766;37.828;2023-02-01T03:40:41;12.30;60.50
40636;DHT22;26642;55.766;37.828;2023-02-01T03:43:14;12.40;60.50
40636;DHT22;26642;55.766;37.828;2023-02-01T03:45:44;12.30;60.50
40636;DHT22;26642;55.766;37.828;2023-02-01T03:48:14;12.30;60.70
40636;DHT22;26642;55.766;37.828;2023-02-01T03:50:49;12.30;60.60
40636;DHT22;26642;55.766;37.828;2023-02-01T03:53:20;12.40;60.80
40636;DHT22;26642;55.766;37.828;2023-02-01T03:55:49;12.40;60.60
40636;DHT22;26642;55.766;37.828;2023-02-01T03:58:20;12.40;60.50
40636;DHT22;26642;55.766;37.828;2023-02-01T04:00:54;12.40;60.40
40636;DHT22;26642;55.766;37.828;2023-02-01T04:03:20;12.40;60.50
40636;DHT22;26642;55.766;37.828;2023-02-01T04:05:51;12.40;60.50
40636;DHT22;26642;55.766;37.828;2023-02-01T04:08:20;12.40;60.40
40636;DHT22;26642;55.766;37.828;2023-02-01T04:10:46;12.40;60.90
40636;DHT22;26642;55.766;37.828;2023-02-01T04:13:12;12.30;60.20
40636;DHT22;26642;55.766;37.828;2023-02-01T04:15:38;12.40;60.30
40636;DHT22;26642;55.766;37.828;2023-02-01T04:18:04;12.40;60.30
40636;DHT22;26642;55.766;37.828;2023-02-01T04:20:31;12.40;60.30
40636;DHT22;26642;55.766;37.828;2023-02-01T04:22:57;12.40;60.40
40636;DHT22;26642;55.766;37.828;2023-02-01T04:25:23;12.40;60.30
40636;DHT22;26642;55.766;37.828;2023-02-01T04:27:51;12.40;60.40
40636;DHT22;26642;55.766;37.828;2023-02-01T04:30:17;12.40;60.40
40636;DHT22;26642;55.766;37.828;2023-02-01T04:32:43;12.40;60.30
40636;DHT22;26642;55.766;37.828;2023-02-01T04:35:09;12.40;60.30
40636;DHT22;26642;55.766;37.828;2023-02-01T04:37:35;12.40;60.90
40636;DHT22;26642;55.766;37.828;2023-02-01T04:40:01;12.40;60.30
40636;DHT22;26642;55.766;37.828;2023-02-01T04:42:30;12.40;60.30
40636;DHT22;26642;55.766;37.828;2023-02-01T04:44:56;12.40;60.30
40636;DHT22;26642;55.766;37.828;2023-02-01T04:47:21;12.40;60.40
40636;DHT22;26642;55.766;37.828;2023-02-01T04:49:47;12.40;60.80
40636;DHT22;26642;55.766;37.828;2023-02-01T04:52:13;12.40;61.30
40636;DHT22;26642;55.766;37.828;2023-02-01T04:54:39;12.40;61.50
40636;DHT22;26642;55.766;37.828;2023-02-01T04:57:05;12.40;62.00
40636;DHT22;26642;55.766;37.828;2023-02-01T04:59:31;12.40;62.40
40636;DHT22;26642;55.766;37.828;2023-02-01T05:01:57;12.40;62.70
40636;DHT22;26642;55.766;37.828;2023-02-01T05:04:23;12.40;63.50
40636;DHT22;26642;55.766;37.828;2023-02-01T05:06:49;12.40;62.90
40636;DHT22;26642;55.766;37.828;2023-02-01T05:09:15;12.40;63.00
40636;DHT22;26642;55.766;37.828;2023-02-01T05:11:41;12.40;63.00
40636;DHT22;26642;55.766;37.828;2023-02-01T05:14:25;12.40;63.10
40636;DHT22;26642;55.766;37.828;2023-02-01T05:16:51;12.40;63.30
40636;DHT22;26642;55.766;37.828;2023-02-01T05:19:17;12.50;63.30
40636;DHT22;26642;55.766;37.828;2023-02-01T05:21:43;12.40;63.10
40636;DHT22;26642;55.766;37.828;2023-02-01T05:24:09;12.40;63.00
40636;DHT22;26642;55.766;37.828;2023-02-01T05:26:40;12.50;63.00
40636;DHT22;26642;55.766;37.828;2023-02-01T05:29:07;12.50;62.90
40636;DHT22;26642;55.766;37.828;2023-02-01T05:31:34;12.50;62.90
40636;DHT22;26642;55.766;37.828;2023-02-01T05:34:00;12.50;62.80
40636;DHT22;26642;55.766;37.828;2023-02-01T05:36:26;12.50;62.70
40636;DHT22;26642;55.766;37.828;2023-02-01T05:38:52;12.50;62.60
40636;DHT22;26642;55.766;37.828;2023-02-01T05:41:18;12.50;62.40
40636;DHT22;26642;55.766;37.828;2023-02-01T05:43:44;12.50;62.40
40636;DHT22;26642;55.766;37.828;2023-02-01T05:46:10;12.50;62.40
40636;DHT22;26642;55.766;37.828;2023-02-01T05:48:41;12.50;62.20
40636;DHT22;26642;55.766;37.828;2023-02-01T05:51:08;12.50;62.30
40636;DHT22;26642;55.766;37.828;2023-02-01T05:53:35;12.50;62.00
40636;DHT22;26642;55.766;37.828;2023-02-01T05:56:01;12.50;62.00
40636;DHT22;26642;55.766;37.828;2023-02-01T05:58:27;12.50;62.10
40636;DHT22;26642;55.766;37.828;2023-02-01T06:00:53;12.50;62.10
40636;DHT22;26642;55.766;37.828;2023-02-01T06:03:19;12.50;62.40
40636;DHT22;26642;55.766;37.828;2023-02-01T06:05:45;12.50;62.20
40636;DHT22;26642;55.766;37.828;2023-02-01T06:08:12;12.50;62.20
40636;DHT22;26642;55.766;37.828;2023-02-01T06:10:38;12.50;62.30
40636;DHT22;26642;55.766;37.828;2023-02-01T06:13:04;12.50;62.30
40636;DHT22;26642;55.766;37.828;2023-02-01T06:15:31;12.50;62.10
40636;DHT22;26642;55.766;37.828;2023-02-01T06:17:57;12.50;62.20
40636;DHT22;26642;55.766;37.828;2023-02-01T06:20:23;12.50;62.10
40636;DHT22;26642;55.766;37.828;2023-02-01T06:22:49;12.50;62.00
40636;DHT22;26642;55.766;37.828;2023-02-01T06:25:16;12.50;61.80
40636;DHT22;26642;55.766;37.828;2023-02-01T06:27:42;12.50;61.90
40636;DHT22;26642;55.766;37.828;2023-02-01T06:30:11;12.50;61.80
40636;DHT22;26642;55.766;37.828;2023-02-01T06:32:42;12.50;61.60
40636;DHT22;26642;55.766;37.828;2023-02-01T06:35:08;12.50;61.70
40636;DHT22;26642;55.766;37.828;2023-02-01T06:37:37;12.50;61.60
40636;DHT22;26642;55.766;37.828;2023-02-01T06:40:04;12.50;61.60
40636;DHT22;26642;55.766;37.828;2023-02-01T06:42:30;12.50;61.40
40636;DHT22;26642;55.766;37.828;2023-02-01T06:44:56;12.50;61.50
40636;DHT22;26642;55.766;37.828;2023-02-01T06:47:22;12.60;61.60
40636;DHT22;26642;55.766;37.828;2023-02-01T06:49:48;12.50;61.40
40636;DHT22;26642;55.766;37.828;2023-02-01T06:52:14;12.50;61.30
40636;DHT22;26642;55.766;37.828;2023-02-01T06:54:40;12.60;61.30
40636;DHT22;26642;55.766;37.828;2023-02-01T06:57:06;12.60;61.10
40636;DHT22;26642;55.766;37.828;2023-02-01T06:59:32;12.60;61.10
40636;DHT22;26642;55.766;37.828;2023-02-01T07:01:58;12.60;61.00
40636;DHT22;26642;55.766;37.828;2023-02-01T07:04:23;12.60;60.80
40636;DHT22;26642;55.766;37.828;2023-02-01T07:06:49;12.60;60.80
40636;DHT22;26642;55.766;37.828;2023-02-01T07:09:15;12.60;60.70
40636;DHT22;26642;55.766;37.828;2023-02-01T07:11:41;12.60;60.80
40636;DHT22;26642;55.766;37.828;2023-02-01T07:14:12;12.60;60.90
40636;DHT22;26642;55.766;37.828;2023-02-01T07:16:38;12.60;60.90
40636;DHT22;26642;55.766;37.828;2023-02-01T07:19:04;12.60;61.00
40636;DHT22;26642;55.766;37.828;2023-02-01T07:21:30;12.60;61.20
40636;DHT22;26642;55.766;37.828;2023-02-01T07:23:56;12.60;61.00
40636;DHT22;26642;55.766;37.828;2023-02-01T07:26:22;12.60;61.00
40636;DHT22;26642;55.766;37.828;2023-02-01T07:28:48;12.60;60.80
40636;DHT22;26642;55.766;37.828;2023-02-01T07:31:16;12.60;60.70
40636;DHT22;26642;55.766;37.828;2023-02-01T07:33:44;12.60;60.60
40636;DHT22;26642;55.766;37.828;2023-02-01T07:36:13;12.60;60.50
40636;DHT22;26642;55.766;37.828;2023-02-01T07:38:40;12.60;60.50
40636;DHT22;26642;55.766;37.828;2023-02-01T07:41:06;12.60;60.50
40636;DHT22;26642;55.766;37.828;2023-02-01T07:43:34;12.70;60.40
40636;DHT22;26642;55.766;37.828;2023-02-01T07:46:01;12.70;60.40
40636;DHT22;26642;55.766;37.828;2023-02-01T07:48:27;12.60;60.20
40636;DHT22;26642;55.766;37.828;2023-02-01T07:51:09;12.60;60.10
40636;DHT22;26642;55.766;37.828;2023-02-01T07:53:35;12.70;60.20
40636;DHT22;26642;55.766;37.828;2023-02-01T07:56:02;12.70;60.30
40636;DHT22;26642;55.766;37.828;2023-02-01T07:58:28;12.70;60.10
40636;DHT22;26642;55.766;37.828;2023-02-01T08:00:55;12.70;60.10
40636;DHT22;26642;55.766;37.828;2023-02-01T08:03:40;12.70;60.00
40636;DHT22;26642;55.766;37.828;2023-02-01T08:06:06;12.70;60.00
40636;DHT22;26642;55.766;37.828;2023-02-01T08:08:32;12.70;59.50
40636;DHT22;26642;55.766;37.828;2023-02-01T08:11:00;12.70;60.00
40636;DHT22;26642;55.766;37.828;2023-02-01T08:13:26;12.80;61.40
40636;DHT22;26642;55.766;37.828;2023-02-01T08:15:52;12.80;62.00
40636;DHT22;26642;55.766;37.828;2023-02-01T08:18:18;12.90;62.50
40636;DHT22;26642;55.766;37.828;2023-02-01T08:20:44;12.90;62.30
40636;DHT22;26642;55.766;37.828;2023-02-01T08:23:13;12.90;62.00
40636;DHT22;26642;55.766;37.828;2023-02-01T08:25:39;12.90;61.50
40636;DHT22;26642;55.766;37.828;2023-02-01T08:28:06;12.90;61.20
40636;DHT22;26642;55.766;37.828;2023-02-01T08:30:32;13.00;61.00
40636;DHT22;26642;55.766;37.828;2023-02-01T08:32:58;13.00;60.80
40636;DHT22;26642;55.766;37.828;2023-02-01T08:35:24;12.90;60.70
40636;DHT22;26642;55.766;37.828;2023-02-01T08:37:50;12.90;60.60
40636;DHT22;26642;55.766;37.828;2023-02-01T08:40:17;13.00;60.50
40636;DHT22;26642;55.766;37.828;2023-02-01T08:42:43;12.90;60.30
40636;DHT22;26642;55.766;37.828;2023-02-01T08:47:45;12.90;60.20
40636;DHT22;26642;55.766;37.828;2023-02-01T08:50:13;12.90;60.30
40636;DHT22;26642;55.766;37.828;2023-02-01T08:52:39;12.90;60.50
40636;DHT22;26642;55.766;37.828;2023-02-01T08:55:06;12.90;60.70
40636;DHT22;26642;55.766;37.828;2023-02-01T08:57:33;12.90;60.70
40636;DHT22;26642;55.766;37.828;2023-02-01T08:59:59;12.90;61.00
40636;DHT22;26642;55.766;37.828;2023-02-01T09:02:25;12.90;61.20
40636;DHT22;26642;55.766;37.828;2023-02-01T09:04:52;13.00;61.30
40636;DHT22;26642;55.766;37.828;2023-02-01T09:07:18;13.00;61.40
40636;DHT22;26642;55.766;37.828;2023-02-01T09:09:45;13.00;61.50
40636;DHT22;26642;55.766;37.828;2023-02-01T09:12:11;13.00;61.60
40636;DHT22;26642;55.766;37.828;2023-02-01T09:14:37;13.00;61.60
40636;DHT22;26642;55.766;37.828;2023-02-01T09:17:03;13.00;61.70
40636;DHT22;26642;55.766;37.828;2023-02-01T09:19:31;13.00;61.70
40636;DHT22;26642;55.766;37.828;2023-02-01T09:21:57;13.00;61.80
40636;DHT22;26642;55.766;37.828;2023-02-01T09:24:23;13.00;61.90
40636;DHT22;26642;55.766;37.828;2023-02-01T09:26:49;13.00;62.00
40636;DHT22;26642;55.766;37.828;2023-02-01T09:29:15;13.00;62.10
40636;DHT22;26642;55.766;37.828;2023-02-01T09:31:42;13.00;62.20
40636;DHT22;26642;55.766;37.828;2023-02-01T09:34:08;13.00;62.30
40636;DHT22;26642;55.766;37.828;2023-02-01T09:36:34;13.00;62.30
40636;DHT22;26642;55.766;37.828;2023-02-01T09:39:01;13.10;62.50
40636;DHT22;26642;55.766;37.828;2023-02-01T09:42:08;13.10;62.40
40636;DHT22;26642;55.766;37.828;2023-02-01T09:47:19;13.10;62.40
40636;DHT22;26642;55.766;37.828;2023-02-01T09:50:08;13.10;62.30
40636;DHT22;26642;55.766;37.828;2023-02-01T09:55:41;13.10;62.20
40636;DHT22;26642;55.766;37.828;2023-02-01T09:58:16;13.10;62.20
40636;DHT22;26642;55.766;37.828;2023-02-01T10:00:52;13.10;62.10
40636;DHT22;26642;55.766;37.828;2023-02-01T10:03:18;13.10;62.10
40636;DHT22;26642;55.766;37.828;2023-02-01T10:06:16;13.10;61.90
40636;DHT22;26642;55.766;37.828;2023-02-01T10:13:52;13.10;62.00
40636;DHT22;26642;55.766;37.828;2023-02-01T10:16:41;13.10;61.90
40636;DHT22;26642;55.766;37.828;2023-02-01T10:27:06;13.10;61.50
40636;DHT22;26642;55.766;37.828;2023-02-01T10:29:39;13.10;61.40
40636;DHT22;26642;55.766;37.828;2023-02-01T10:32:21;13.10;61.30
40636;DHT22;26642;55.766;37.828;2023-02-01T10:34:59;13.10;61.20
40636;DHT22;26642;55.766;37.828;2023-02-01T10:37:31;13.10;61.10
40636;DHT22;26642;55.766;37.828;2023-02-01T10:40:00;13.10;61.20
40636;DHT22;26642;55.766;37.828;2023-02-01T10:42:28;13.10;61.20
40636;DHT22;26642;55.766;37.828;2023-02-01T10:44:59;13.10;61.10
40636;DHT22;26642;55.766;37.828;2023-02-01T10:47:26;13.20;61.10
40636;DHT22;26642;55.766;37.828;2023-02-01T10:50:17;13.10;61.00
40636;DHT22;26642;55.766;37.828;2023-02-01T10:53:05;13.20;61.10
40636;DHT22;26642;55.766;37.828;2023-02-01T10:58:25;13.10;60.90
40636;DHT22;26642;55.766;37.828;2023-02-01T11:01:04;13.20;60.90
40636;DHT22;26642;55.766;37.828;2023-02-01T11:04:01;13.20;60.80
40636;DHT22;26642;55.766;37.828;2023-02-01T11:06:36;13.10;60.70
40636;DHT22;26642;55.766;37.828;2023-02-01T11:11:56;13.10;60.50
40636;DHT22;26642;55.766;37.828;2023-02-01T11:14:33;13.10;60.40
40636;DHT22;26642;55.766;37.828;2023-02-01T11:17:03;13.10;60.30
40636;DHT22;26642;55.766;37.828;2023-02-01T11:19:36;13.10;60.40
40636;DHT22;26642;55.766;37.828;2023-02-01T11:22:03;13.10;60.40
40636;DHT22;26642;55.766;37.828;2023-02-01T11:24:32;13.10;60.40
40636;DHT22;26642;55.766;37.828;2023-02-01T11:27:12;13.10;60.30
40636;DHT22;26642;55.766;37.828;2023-02-01T11:29:43;13.00;60.20
40636;DHT22;26642;55.766;37.828;2023-02-01T11:32:12;13.00;60.20
40636;DHT22;26642;55.766;37.828;2023-02-01T11:34:43;13.00;60.00
40636;DHT22;26642;55.766;37.828;2023-02-01T11:37:21;13.00;59.90
40636;DHT22;26642;55.766;37.828;2023-02-01T11:40:23;13.00;59.90
40636;DHT22;26642;55.766;37.828;2023-02-01T11:43:11;13.00;59.80
40636;DHT22;26642;55.766;37.828;2023-02-01T11:45:39;13.00;59.90
40636;DHT22;26642;55.766;37.828;2023-02-01T11:48:10;13.00;59.90
40636;DHT22;26642;55.766;37.828;2023-02-01T11:59:13;13.00;60.00
40636;DHT22;26642;55.766;37.828;2023-02-01T12:13:12;13.00;60.30
40636;DHT22;26642;55.766;37.828;2023-02-01T12:32:18;12.90;59.70
40636;DHT22;26642;55.766;37.828;2023-02-01T12:40:12;12.90;59.70
40636;DHT22;26642;55.766;37.828;2023-02-01T12:42:44;12.90;59.80
40636;DHT22;26642;55.766;37.828;2023-02-01T12:46:01;12.80;59.80
40636;DHT22;26642;55.766;37.828;2023-02-01T12:50:52;12.80;59.90
40636;DHT22;26642;55.766;37.828;2023-02-01T12:53:48;12.80;59.80
40636;DHT22;26642;55.766;37.828;2023-02-01T12:56:24;12.80;59.80
40636;DHT22;26642;55.766;37.828;2023-02-01T12:58:55;12.70;59.80
40636;DHT22;26642;55.766;37.828;2023-02-01T13:01:40;12.70;59.90
40636;DHT22;26642;55.766;37.828;2023-02-01T13:04:15;12.70;60.10
40636;DHT22;26642;55.766;37.828;2023-02-01T13:06:47;12.70;60.00
40636;DHT22;26642;55.766;37.828;2023-02-01T13:09:30;12.70;60.00
40636;DHT22;26642;55.766;37.828;2023-02-01T13:12:00;12.70;60.10
40636;DHT22;26642;55.766;37.828;2023-02-01T13:15:02;12.70;60.20
40636;DHT22;26642;55.766;37.828;2023-02-01T13:17:31;12.70;60.20
40636;DHT22;26642;55.766;37.828;2023-02-01T13:20:23;12.70;60.30
40636;DHT22;26642;55.766;37.828;2023-02-01T13:23:02;12.60;60.10
40636;DHT22;26642;55.766;37.828;2023-02-01T13:28:00;12.60;60.30
40636;DHT22;26642;55.766;37.828;2023-02-01T13:30:48;12.60;60.20
40636;DHT22;26642;55.766;37.828;2023-02-01T13:41:56;12.60;60.70
40636;DHT22;26642;55.766;37.828;2023-02-01T13:44:59;12.60;60.40
40636;DHT22;26642;55.766;37.828;2023-02-01T13:47:31;12.60;60.50
40636;DHT22;26642;55.766;37.828;2023-02-01T13:50:02;12.60;60.50
40636;DHT22;26642;55.766;37.828;2023-02-01T13:52:55;12.50;60.50
40636;DHT22;26642;55.766;37.828;2023-02-01T13:57:45;12.50;60.40
40636;DHT22;26642;55.766;37.828;2023-02-01T14:00:33;12.50;60.60
40636;DHT22;26642;55.766;37.828;2023-02-01T14:08:12;12.50;60.50
40636;DHT22;26642;55.766;37.828;2023-02-01T14:23:54;12.40;60.50
40636;DHT22;26642;55.766;37.828;2023-02-01T14:31:43;12.40;60.50
40636;DHT22;26642;55.766;37.828;2023-02-01T14:34:24;12.30;60.80
40636;DHT22;26642;55.766;37.828;2023-02-01T14:37:03;12.30;60.40
40636;DHT22;26642;55.766;37.828;2023-02-01T14:40:00;12.40;60.50
40636;DHT22;26642;55.766;37.828;2023-02-01T14:53:14;12.30;60.40
40636;DHT22;26642;55.766;37.828;2023-02-01T14:58:32;12.30;60.70
40636;DHT22;26642;55.766;37.828;2023-02-01T15:01:23;12.20;59.10
40636;DHT22;26642;55.766;37.828;2023-02-01T15:04:11;12.00;57.10
40636;DHT22;26642;55.766;37.828;2023-02-01T15:06:41;11.70;57.00
40636;DHT22;26642;55.766;37.828;2023-02-01T15:09:18;11.40;56.60
40636;DHT22;26642;55.766;37.828;2023-02-01T15:14:40;10.90;57.50
40636;DHT22;26642;55.766;37.828;2023-02-01T15:17:27;10.70;57.50
40636;DHT22;26642;55.766;37.828;2023-02-01T15:22:31;10.40;58.50
40636;DHT22;26642;55.766;37.828;2023-02-01T15:24:59;10.30;58.30
40636;DHT22;26642;55.766;37.828;2023-02-01T15:27:26;10.20;58.50
40636;DHT22;26642;55.766;37.828;2023-02-01T15:29:53;10.10;58.70
40636;DHT22;26642;55.766;37.828;2023-02-01T15:32:34;10.00;58.90
40636;DHT22;26642;55.766;37.828;2023-02-01T15:35:01;9.90;59.40
40636;DHT22;26642;55.766;37.828;2023-02-01T15:37:28;9.90;59.60
40636;DHT22;26642;55.766;37.828;2023-02-01T15:40:04;9.80;59.80
40636;DHT22;26642;55.766;37.828;2023-02-01T15:42:31;9.70;59.40
40636;DHT22;26642;55.766;37.828;2023-02-01T15:44:57;9.70;59.80
40636;DHT22;26642;55.766;37.828;2023-02-01T15:47:28;9.60;59.90
40636;DHT22;26642;55.766;37.828;2023-02-01T15:49:59;9.50;60.20
40636;DHT22;26642;55.766;37.828;2023-02-01T15:52:37;9.50;60.60
40636;DHT22;26642;55.766;37.828;2023-02-01T15:55:55;9.40;60.50
40636;DHT22;26642;55.766;37.828;2023-02-01T15:57:55;9.40;60.40
40636;DHT22;26642;55.766;37.828;2023-02-01T16:00:27;9.30;60.90
40636;DHT22;26642;55.766;37.828;2023-02-01T16:02:58;9.30;60.80
40636;DHT22;26642;55.766;37.828;2023-02-01T16:05:39;9.20;60.90
40636;DHT22;26642;55.766;37.828;2023-02-01T16:08:16;9.20;60.90
40636;DHT22;26642;55.766;37.828;2023-02-01T16:10:45;9.10;61.00
40636;DHT22;26642;55.766;37.828;2023-02-01T16:13:12;9.10;60.90
40636;DHT22;26642;55.766;37.828;2023-02-01T16:15:38;9.00;61.00
40636;DHT22;26642;55.766;37.828;2023-02-01T16:18:05;9.00;61.10
40636;DHT22;26642;55.766;37.828;2023-02-01T16:20:34;9.00;61.30
40636;DHT22;26642;55.766;37.828;2023-02-01T16:23:02;8.90;61.40
40636;DHT22;26642;55.766;37.828;2023-02-01T16:25:28;8.90;61.60
40636;DHT22;26642;55.766;37.828;2023-02-01T16:27:54;8.90;61.40
40636;DHT22;26642;55.766;37.828;2023-02-01T16:30:20;8.90;61.40
40636;DHT22;26642;55.766;37.828;2023-02-01T16:32:53;8.80;61.50
40636;DHT22;26642;55.766;37.828;2023-02-01T16:35:37;8.80;61.50
40636;DHT22;26642;55.766;37.828;2023-02-01T16:38:05;8.80;62.50
40636;DHT22;26642;55.766;37.828;2023-02-01T16:40:34;9.00;64.30
40636;DHT22;26642;55.766;37.828;2023-02-01T16:43:00;9.10;64.70
40636;DHT22;26642;55.766;37.828;2023-02-01T16:45:26;9.20;65.00
40636;DHT22;26642;55.766;37.828;2023-02-01T16:47:54;9.30;65.20
40636;DHT22;26642;55.766;37.828;2023-02-01T16:50:23;9.50;65.90
40636;DHT22;26642;55.766;37.828;2023-02-01T16:52:51;9.60;65.30
40636;DHT22;26642;55.766;37.828;2023-02-01T16:55:18;9.70;65.30
40636;DHT22;26642;55.766;37.828;2023-02-01T16:57:45;9.80;65.40
40636;DHT22;26642;55.766;37.828;2023-02-01T17:00:11;9.90;65.40
40636;DHT22;26642;55.766;37.828;2023-02-01T17:02:38;10.00;65.50
40636;DHT22;26642;55.766;37.828;2023-02-01T17:05:05;10.10;65.50
40636;DHT22;26642;55.766;37.828;2023-02-01T17:07:31;10.20;65.40
40636;DHT22;26642;55.766;37.828;2023-02-01T17:09:57;10.30;65.30
40636;DHT22;26642;55.766;37.828;2023-02-01T17:12:30;10.40;65.20
40636;DHT22;26642;55.766;37.828;2023-02-01T17:14:58;10.40;64.90
40636;DHT22;26642;55.766;37.828;2023-02-01T17:17:50;10.50;65.00
40636;DHT22;26642;55.766;37.828;2023-02-01T17:20:36;10.60;65.00
40636;DHT22;26642;55.766;37.828;2023-02-01T17:23:03;10.70;65.00
40636;DHT22;26642;55.766;37.828;2023-02-01T17:25:29;10.70;65.00
40636;DHT22;26642;55.766;37.828;2023-02-01T17:27:56;10.80;65.00
40636;DHT22;26642;55.766;37.828;2023-02-01T17:30:22;10.90;64.90
40636;DHT22;26642;55.766;37.828;2023-02-01T17:32:48;10.80;64.90
40636;DHT22;26642;55.766;37.828;2023-02-01T17:35:26;10.90;64.80
40636;DHT22;26642;55.766;37.828;2023-02-01T17:38:01;11.00;64.70
40636;DHT22;26642;55.766;37.828;2023-02-01T17:40:31;11.00;64.70
40636;DHT22;26642;55.766;37.828;2023-02-01T17:42:57;11.10;64.60
40636;DHT22;26642;55.766;37.828;2023-02-01T17:45:39;11.10;64.50
40636;DHT22;26642;55.766;37.828;2023-02-01T17:48:15;11.20;64.50
40636;DHT22;26642;55.766;37.828;2023-02-01T17:50:41;11.20;64.60
40636;DHT22;26642;55.766;37.828;2023-02-01T17:53:12;11.30;64.80
40636;DHT22;26642;55.766;37.828;2023-02-01T17:55:45;11.30;64.40
40636;DHT22;26642;55.766;37.828;2023-02-01T17:58:13;11.40;64.50
40636;DHT22;26642;55.766;37.828;2023-02-01T18:00:41;11.30;64.30
40636;DHT22;26642;55.766;37.828;2023-02-01T18:03:23;11.40;64.20
40636;DHT22;26642;55.766;37.828;2023-02-01T18:05:55;11.40;64.10
40636;DHT22;26642;55.766;37.828;2023-02-01T18:08:27;11.50;64.00
40636;DHT22;26642;55.766;37.828;2023-02-01T18:10:59;11.50;63.80
40636;DHT22;26642;55.766;37.828;2023-02-01T18:13:50;11.50;63.70
40636;DHT22;26642;55.766;37.828;2023-02-01T18:16:28;11.50;63.70
40636;DHT22;26642;55.766;37.828;2023-02-01T18:21:43;11.60;63.70
40636;DHT22;26642;55.766;37.828;2023-02-01T18:24:13;11.60;63.80
40636;DHT22;26642;55.766;37.828;2023-02-01T18:26:40;11.60;63.80
40636;DHT22;26642;55.766;37.828;2023-02-01T18:29:06;11.70;63.70
40636;DHT22;26642;55.766;37.828;2023-02-01T18:31:33;11.70;63.70